createdAt,value
2018-12-13T00:02:12.070Z,6.57
2018-12-13T00:04:44.832Z,9.03
2018-12-13T00:07:17.423Z,6.63
2018-12-13T00:09:50.166Z,7.80
2018-12-13T00:12:23.822Z,7.60
2018-12-13T00:14:56.377Z,8.17
2018-12-13T00:17:28.910Z,6.63
2018-12-13T00:20:01.691Z,8.20
2018-12-13T00:22:34.283Z,7.07
2018-12-13T00:25:06.877Z,7.23
2018-12-13T00:27:39.411Z,7.13
2018-12-13T00:30:11.982Z,7.30
2018-12-13T00:32:44.584Z,7.47
2018-12-13T00:35:17.233Z,5.90
2018-12-13T00:37:49.768Z,7.17
2018-12-13T00:40:22.549Z,6.37
2018-12-13T00:42:55.086Z,7.30
2018-12-13T00:45:27.736Z,6.83
2018-12-13T00:48:00.345Z,7.00
2018-12-13T00:50:33.023Z,6.53
2018-12-13T00:53:05.659Z,6.43
2018-12-13T00:55:38.211Z,6.83
2018-12-13T00:58:10.892Z,7.47
2018-12-13T01:00:43.452Z,7.07
2018-12-13T01:03:15.981Z,7.03
2018-12-13T01:05:48.529Z,7.30
2018-12-13T01:08:21.071Z,7.70
2018-12-13T01:10:53.757Z,6.37
2018-12-13T01:13:26.290Z,7.47
2018-12-13T01:15:58.848Z,8.13
2018-12-13T01:18:31.368Z,7.17
2018-12-13T01:21:03.942Z,7.30
2018-12-13T01:23:36.513Z,7.10
2018-12-13T01:26:09.069Z,7.93
2018-12-13T01:28:41.595Z,7.50
2018-12-13T01:31:14.241Z,7.03
2018-12-13T01:33:46.741Z,8.40
2018-12-13T01:36:19.298Z,7.70
2018-12-13T01:38:51.839Z,7.10
2018-12-13T01:41:24.469Z,7.60
2018-12-13T01:43:57.123Z,7.10
2018-12-13T01:46:29.694Z,8.00
2018-12-13T01:49:02.229Z,7.27
2018-12-13T01:51:34.804Z,6.90
2018-12-13T01:54:07.339Z,6.57
2018-12-13T01:56:39.901Z,7.73
2018-12-13T01:59:12.442Z,6.43
2018-12-13T02:01:45.307Z,6.80
2018-12-13T02:04:17.852Z,6.77
2018-12-13T02:06:50.431Z,7.07
2018-12-13T02:09:23.174Z,7.27
2018-12-13T02:11:55.744Z,7.03
2018-12-13T02:14:28.326Z,7.50
2018-12-13T02:17:01.082Z,6.67
2018-12-13T02:19:33.679Z,7.17
2018-12-13T02:22:06.279Z,6.40
2018-12-13T02:24:38.803Z,8.40
2018-12-13T02:27:11.369Z,7.40
2018-12-13T02:29:43.895Z,7.70
2018-12-13T02:32:16.530Z,9.70
2018-12-13T02:34:49.145Z,8.20
2018-12-13T02:37:21.746Z,7.33
2018-12-13T02:39:54.278Z,6.60
2018-12-13T02:42:26.935Z,7.13
2018-12-13T02:44:59.490Z,7.10
2018-12-13T02:47:32.274Z,7.87
2018-12-13T02:50:05.333Z,7.70
2018-12-13T02:52:37.898Z,7.13
2018-12-13T02:55:10.449Z,8.33
2018-12-13T02:57:43.011Z,8.20
2018-12-13T03:00:15.540Z,7.43
2018-12-13T03:02:48.180Z,7.93
2018-12-13T03:05:20.766Z,7.20
2018-12-13T03:07:53.410Z,7.93
2018-12-13T03:10:25.953Z,7.40
2018-12-13T03:12:58.586Z,7.03
2018-12-13T03:15:31.116Z,6.97
2018-12-13T03:18:03.764Z,7.10
2018-12-13T03:20:36.301Z,7.97
2018-12-13T03:23:08.921Z,7.10
2018-12-13T03:25:41.454Z,7.27
2018-12-13T03:28:14.019Z,6.97
2018-12-13T03:30:46.561Z,7.17
2018-12-13T03:33:19.160Z,6.90
2018-12-13T03:35:51.714Z,7.13
2018-12-13T03:38:24.273Z,6.63
2018-12-13T03:40:56.811Z,7.50
2018-12-13T03:43:29.390Z,7.90
2018-12-13T03:46:01.931Z,7.23
2018-12-13T03:48:34.594Z,8.13
2018-12-13T03:51:07.177Z,8.43
2018-12-13T03:53:39.798Z,9.03
2018-12-13T03:56:12.333Z,7.93
2018-12-13T03:58:44.988Z,7.70
2018-12-13T04:01:17.523Z,10.53
2018-12-13T04:03:50.082Z,9.03
2018-12-13T04:06:22.602Z,8.47
2018-12-13T04:08:55.251Z,8.70
2018-12-13T04:11:27.788Z,8.77
2018-12-13T04:14:00.423Z,8.30
2018-12-13T04:16:32.966Z,9.03
2018-12-13T04:19:05.627Z,8.97
2018-12-13T04:21:38.220Z,8.87
2018-12-13T04:24:10.893Z,7.83
2018-12-13T04:26:43.448Z,7.67
2018-12-13T04:29:16.176Z,8.17
2018-12-13T04:31:48.764Z,7.90
2018-12-13T04:34:21.452Z,7.27
2018-12-13T04:36:53.992Z,6.70
2018-12-13T04:39:26.637Z,5.93
2018-12-13T04:41:59.179Z,7.67
2018-12-13T04:44:31.993Z,6.27
2018-12-13T04:47:04.540Z,5.47
2018-12-13T04:49:37.291Z,5.63
2018-12-13T04:52:09.826Z,5.57
2018-12-13T04:54:42.421Z,4.70
2018-12-13T04:57:14.970Z,6.80
2018-12-13T04:59:47.544Z,5.27
2018-12-13T05:02:20.072Z,5.37
2018-12-13T05:04:52.649Z,5.30
2018-12-13T05:07:25.192Z,4.70
2018-12-13T05:09:57.897Z,4.73
2018-12-13T05:12:30.565Z,5.53
2018-12-13T05:15:03.146Z,4.47
2018-12-13T05:17:35.692Z,4.17
2018-12-13T05:20:08.326Z,4.90
2018-12-13T05:22:42.602Z,4.80
2018-12-13T05:25:15.261Z,3.73
2018-12-13T05:27:47.810Z,4.50
2018-12-13T05:30:20.360Z,3.73
2018-12-13T05:32:52.887Z,3.60
2018-12-13T05:35:25.451Z,4.40
2018-12-13T05:37:57.983Z,4.20
2018-12-13T05:40:30.547Z,3.90
2018-12-13T05:43:03.120Z,3.80
2018-12-13T05:45:35.708Z,3.23
2018-12-13T05:48:08.269Z,3.40
2018-12-13T05:50:40.966Z,3.33
2018-12-13T05:53:13.498Z,3.27
2018-12-13T05:55:46.070Z,3.17
2018-12-13T05:58:18.698Z,3.20
2018-12-13T06:00:51.345Z,3.50
2018-12-13T06:03:23.959Z,3.47
2018-12-13T06:05:56.593Z,3.27
2018-12-13T06:08:29.117Z,3.40
2018-12-13T06:11:01.768Z,3.53
2018-12-13T06:13:34.290Z,3.80
2018-12-13T06:16:06.922Z,4.27
2018-12-13T06:18:39.455Z,4.03
2018-12-13T06:21:12.095Z,4.37
2018-12-13T06:23:44.649Z,3.90
2018-12-13T06:26:17.349Z,4.30
2018-12-13T06:28:49.875Z,3.73
2018-12-13T06:31:22.520Z,4.10
2018-12-13T06:33:55.114Z,5.63
2018-12-13T06:36:27.670Z,3.70
2018-12-13T06:39:00.198Z,4.27
2018-12-13T06:41:32.951Z,3.40
2018-12-13T06:44:05.472Z,3.83
2018-12-13T06:46:38.118Z,3.50
2018-12-13T06:49:10.668Z,3.80
2018-12-13T06:51:43.262Z,3.60
2018-12-13T06:54:15.929Z,3.60
2018-12-13T06:56:48.506Z,3.67
2018-12-13T06:59:21.040Z,3.03
2018-12-13T07:01:53.813Z,3.70
2018-12-13T07:04:26.444Z,3.77
2018-12-13T07:06:59.149Z,3.00
2018-12-13T07:09:31.694Z,4.07
2018-12-13T07:12:04.260Z,4.07
2018-12-13T07:14:36.764Z,3.40
2018-12-13T07:17:09.425Z,4.10
2018-12-13T07:19:41.950Z,3.80
2018-12-13T07:22:14.519Z,2.93
2018-12-13T07:24:47.064Z,3.17
2018-12-13T07:27:19.725Z,3.57
2018-12-13T07:29:52.271Z,3.27
2018-12-13T07:32:24.848Z,3.30
2018-12-13T07:35:01.280Z,3.53
2018-12-13T07:37:32.007Z,2.90
2018-12-13T07:40:06.664Z,2.80
2018-12-13T07:42:39.410Z,3.47
2018-12-13T07:45:12.255Z,3.10
2018-12-13T07:47:44.962Z,3.20
2018-12-13T07:50:17.510Z,3.83
2018-12-13T07:52:50.247Z,3.37
2018-12-13T07:55:22.785Z,2.70
2018-12-13T07:57:55.368Z,3.70
2018-12-13T08:00:27.919Z,3.03
2018-12-13T08:03:00.472Z,2.97
2018-12-13T08:05:33.037Z,2.77
2018-12-13T08:08:06.026Z,3.30
2018-12-13T08:10:38.607Z,3.00
2018-12-13T08:13:11.425Z,2.83
2018-12-13T08:15:44.110Z,2.87
2018-12-13T08:18:16.776Z,2.47
2018-12-13T08:20:49.302Z,3.07
2018-12-13T08:23:21.958Z,2.60
2018-12-13T08:25:54.502Z,3.93
2018-12-13T08:28:27.089Z,2.60
2018-12-13T08:30:59.632Z,3.10
2018-12-13T08:33:32.200Z,2.63
2018-12-13T08:36:04.896Z,2.93
2018-12-13T08:38:37.582Z,2.90
2018-12-13T08:41:10.120Z,2.47
2018-12-13T08:43:42.776Z,2.57
2018-12-13T08:46:15.319Z,2.83
2018-12-13T08:48:47.872Z,3.37
2018-12-13T08:51:20.429Z,3.37
2018-12-13T08:53:53.058Z,2.83
2018-12-13T08:56:25.620Z,3.33
2018-12-13T08:58:58.277Z,3.87
2018-12-13T09:01:30.823Z,2.83
2018-12-13T09:04:03.395Z,2.60
2018-12-13T09:06:35.956Z,2.57
2018-12-13T09:09:08.591Z,2.43
2018-12-13T09:11:41.161Z,2.87
2018-12-13T09:14:13.809Z,2.43
2018-12-13T09:16:46.368Z,3.00
2018-12-13T09:19:18.947Z,2.73
2018-12-13T09:21:51.540Z,2.67
2018-12-13T09:24:24.137Z,2.87
2018-12-13T09:26:56.729Z,3.00
2018-12-13T09:29:29.339Z,2.53
2018-12-13T09:32:01.889Z,2.77
2018-12-13T09:34:34.479Z,2.97
2018-12-13T09:37:07.127Z,3.33
2018-12-13T09:39:39.694Z,3.67
2018-12-13T09:42:12.240Z,3.20
2018-12-13T09:44:44.877Z,3.23
2018-12-13T09:47:17.423Z,3.07
2018-12-13T09:49:49.987Z,4.17
2018-12-13T09:52:22.544Z,3.87
2018-12-13T09:54:55.100Z,4.00
2018-12-13T09:57:31.015Z,3.97
2018-12-13T10:00:06.284Z,5.27
2018-12-13T10:02:38.820Z,4.53
2018-12-13T10:05:11.394Z,3.80
2018-12-13T10:07:45.016Z,5.00
2018-12-13T10:10:17.860Z,6.50
2018-12-13T10:12:50.430Z,5.17
2018-12-13T10:15:23.080Z,4.67
2018-12-13T10:17:55.653Z,3.73
2018-12-13T10:20:28.213Z,7.67
2018-12-13T10:23:00.748Z,3.93
2018-12-13T10:25:33.469Z,4.20
2018-12-13T10:28:06.021Z,4.53
2018-12-13T10:30:38.667Z,4.90
2018-12-13T10:33:11.220Z,4.30
2018-12-13T10:35:43.806Z,5.53
2018-12-13T10:38:16.324Z,7.30
2018-12-13T10:40:49.893Z,8.33
2018-12-13T10:43:22.433Z,8.10
2018-12-13T10:45:55.018Z,6.73
2018-12-13T10:48:27.619Z,7.73
2018-12-13T10:51:00.183Z,6.53
2018-12-13T10:53:32.719Z,7.30
2018-12-13T10:56:05.533Z,13.87
2018-12-13T10:58:38.077Z,13.30
2018-12-13T11:01:16.139Z,15.00
2018-12-13T11:03:48.712Z,11.27
2018-12-13T11:06:21.309Z,10.33
2018-12-13T11:08:59.217Z,7.57
2018-12-13T11:11:28.602Z,5.30
2018-12-13T11:14:01.229Z,4.27
2018-12-13T11:16:33.870Z,5.77
2018-12-13T11:19:06.547Z,5.60
2018-12-13T11:21:39.112Z,3.93
2018-12-13T11:24:11.674Z,3.50
2018-12-13T11:26:44.359Z,2.30
2018-12-13T11:29:28.776Z,2.70
2018-12-13T11:32:01.364Z,3.03
2018-12-13T11:34:33.908Z,2.43
2018-12-13T11:37:06.510Z,3.27
2018-12-13T11:39:39.047Z,2.70
2018-12-13T11:42:11.641Z,3.10
2018-12-13T11:44:44.370Z,2.57
2018-12-13T11:47:17.299Z,2.50
2018-12-13T11:49:50.043Z,3.67
2018-12-13T11:52:22.733Z,2.87
2018-12-13T11:54:56.226Z,2.40
2018-12-13T11:57:28.908Z,2.63
2018-12-13T12:00:01.475Z,2.50
2018-12-13T12:02:34.163Z,2.70
2018-12-13T12:05:06.723Z,2.43
2018-12-13T12:07:39.332Z,2.30
2018-12-13T12:10:11.991Z,2.40
2018-12-13T12:12:44.551Z,2.20
2018-12-13T12:15:17.252Z,2.60
2018-12-13T12:17:50.128Z,1.93
2018-12-13T12:20:22.674Z,2.70
2018-12-13T12:22:55.321Z,2.73
2018-12-13T12:25:27.866Z,2.70
2018-12-13T12:28:00.422Z,3.00
2018-12-13T12:30:32.961Z,3.37
2018-12-13T12:33:05.682Z,2.60
2018-12-13T12:35:38.216Z,3.30
2018-12-13T12:38:10.769Z,2.87
2018-12-13T12:40:43.300Z,3.50
2018-12-13T12:43:15.982Z,3.00
2018-12-13T12:45:48.584Z,2.60
2018-12-13T12:48:21.133Z,3.50
2018-12-13T12:50:53.674Z,3.10
2018-12-13T12:53:26.251Z,3.57
2018-12-13T12:55:58.895Z,2.90
2018-12-13T12:58:31.447Z,3.43
2018-12-13T13:01:04.022Z,2.93
2018-12-13T13:03:36.801Z,2.83
2018-12-13T13:06:09.356Z,2.90
2018-12-13T13:08:42.008Z,3.10
2018-12-13T13:11:14.645Z,2.80
2018-12-13T13:13:47.436Z,3.63
2018-12-13T13:16:19.987Z,3.20
2018-12-13T13:18:52.672Z,3.00
2018-12-13T13:21:25.219Z,3.30
2018-12-13T13:23:57.945Z,3.00
2018-12-13T13:26:30.549Z,2.60
2018-12-13T13:29:03.344Z,2.73
2018-12-13T13:31:35.871Z,2.73
2018-12-13T13:34:08.570Z,3.17
2018-12-13T13:36:41.101Z,3.20
2018-12-13T13:39:13.672Z,3.03
2018-12-13T13:41:46.205Z,3.10
2018-12-13T13:44:19.399Z,3.67
2018-12-13T13:46:52.871Z,3.53
2018-12-13T13:49:25.550Z,3.27
2018-12-13T13:51:58.097Z,3.53
2018-12-13T13:54:30.673Z,3.83
2018-12-13T13:57:03.631Z,3.67
2018-12-13T13:59:36.303Z,6.20
2018-12-13T14:02:08.873Z,3.70
2018-12-13T14:04:41.446Z,3.50
2018-12-13T14:07:13.988Z,3.90
2018-12-13T14:09:46.584Z,4.50
2018-12-13T14:12:19.156Z,4.20
2018-12-13T14:14:51.713Z,3.93
2018-12-13T14:17:24.252Z,4.30
2018-12-13T14:19:56.858Z,4.70
2018-12-13T14:22:29.384Z,4.40
2018-12-13T14:25:01.992Z,4.33
2018-12-13T14:27:34.561Z,4.67
2018-12-13T14:30:07.415Z,4.73
2018-12-13T14:32:39.947Z,5.60
2018-12-13T14:35:12.503Z,5.40
2018-12-13T14:37:45.056Z,5.93
2018-12-13T14:40:17.696Z,5.43
2018-12-13T14:42:50.225Z,5.23
2018-12-13T14:45:22.788Z,5.83
2018-12-13T14:47:55.325Z,5.27
2018-12-13T14:50:28.001Z,6.13
2018-12-13T14:53:00.522Z,6.90
2018-12-13T14:55:33.427Z,6.43
2018-12-13T14:58:05.981Z,6.27
2018-12-13T15:00:38.630Z,7.07
2018-12-13T15:03:11.167Z,6.27
2018-12-13T15:05:43.821Z,6.80
2018-12-13T15:08:16.362Z,5.83
2018-12-13T15:10:48.943Z,6.90
2018-12-13T15:13:21.471Z,6.30
2018-12-13T15:15:54.118Z,6.67
2018-12-13T15:18:26.649Z,6.23
2018-12-13T15:20:59.196Z,7.17
2018-12-13T15:23:31.739Z,7.23
2018-12-13T15:26:04.306Z,7.00
2018-12-13T15:28:36.878Z,6.57
2018-12-13T15:31:09.501Z,7.00
2018-12-13T15:33:42.043Z,5.53
2018-12-13T15:36:14.685Z,7.37
2018-12-13T15:38:47.225Z,7.33
2018-12-13T15:41:19.839Z,8.23
2018-12-13T15:43:52.374Z,7.87
2018-12-13T15:46:25.120Z,7.50
2018-12-13T15:48:57.663Z,8.43
2018-12-13T15:51:30.256Z,8.80
2018-12-13T15:54:02.804Z,9.23
2018-12-13T15:56:35.480Z,8.93
2018-12-13T15:59:08.048Z,9.00
2018-12-13T16:01:40.708Z,9.47
2018-12-13T16:04:13.238Z,9.07
2018-12-13T16:06:45.836Z,9.03
2018-12-13T16:09:18.426Z,9.30
2018-12-13T16:11:51.014Z,9.30
2018-12-13T16:14:23.544Z,9.47
2018-12-13T16:16:57.528Z,9.27
2018-12-13T16:19:30.278Z,8.97
2018-12-13T16:22:02.850Z,8.90
2018-12-13T16:24:35.452Z,8.53
2018-12-13T16:27:08.437Z,9.70
2018-12-13T16:29:40.984Z,9.83
2018-12-13T16:32:13.629Z,9.10
2018-12-13T16:34:46.148Z,9.33
2018-12-13T16:37:18.795Z,9.77
2018-12-13T16:39:51.334Z,11.30
2018-12-13T16:42:23.907Z,8.53
2018-12-13T16:44:56.805Z,10.47
2018-12-13T16:47:29.513Z,9.43
2018-12-13T16:50:02.091Z,9.37
2018-12-13T16:52:34.715Z,10.33
2018-12-13T16:55:07.224Z,8.63
2018-12-13T16:57:39.870Z,9.53
2018-12-13T17:00:12.529Z,9.27
2018-12-13T17:02:45.100Z,8.57
2018-12-13T17:05:17.635Z,9.10
2018-12-13T17:07:50.191Z,10.20
2018-12-13T17:10:22.736Z,10.50
2018-12-13T17:12:55.285Z,9.70
2018-12-13T17:15:27.843Z,9.57
2018-12-13T17:18:00.396Z,8.80
2018-12-13T17:20:32.974Z,9.30
2018-12-13T17:23:05.538Z,9.20
2018-12-13T17:25:38.164Z,10.10
2018-12-13T17:28:10.819Z,10.13
2018-12-13T17:30:43.371Z,9.97
2018-12-13T17:33:16.019Z,10.77
2018-12-13T17:35:48.573Z,11.33
2018-12-13T17:38:22.573Z,10.63
2018-12-13T17:40:55.376Z,10.40
2018-12-13T17:43:27.957Z,11.07
2018-12-13T17:46:00.502Z,11.93
2018-12-13T17:48:33.077Z,11.63
2018-12-13T17:51:05.645Z,11.90
2018-12-13T17:53:38.212Z,11.60
2018-12-13T17:56:10.759Z,12.07
2018-12-13T17:58:43.332Z,12.17
2018-12-13T18:01:15.873Z,12.77
2018-12-13T18:03:48.530Z,13.37
2018-12-13T18:06:21.073Z,13.33
2018-12-13T18:08:53.638Z,12.27
2018-12-13T18:11:26.170Z,12.00
2018-12-13T18:13:58.751Z,12.47
2018-12-13T18:16:31.309Z,13.33
2018-12-13T18:19:03.925Z,12.17
2018-12-13T18:21:36.576Z,13.47
2018-12-13T18:24:09.237Z,13.37
2018-12-13T18:26:41.859Z,21.93
2018-12-13T18:29:14.427Z,16.63
2018-12-13T18:31:46.957Z,56.70
2018-12-13T18:34:19.522Z,73.70
2018-12-13T18:36:52.135Z,16.40
2018-12-13T18:39:24.790Z,15.43
2018-12-13T18:41:57.439Z,14.03
2018-12-13T18:44:30.007Z,12.53
2018-12-13T18:47:02.564Z,13.90
2018-12-13T18:49:35.374Z,13.33
2018-12-13T18:52:08.819Z,12.53
2018-12-13T18:54:41.546Z,13.10
2018-12-13T18:57:14.074Z,13.10
2018-12-13T18:59:46.641Z,13.27
2018-12-13T19:02:19.178Z,12.97
2018-12-13T19:04:51.777Z,13.23
2018-12-13T19:07:24.336Z,13.30
2018-12-13T19:09:56.888Z,12.77
2018-12-13T19:12:29.423Z,13.00
2018-12-13T19:15:02.029Z,13.87
2018-12-13T19:17:34.573Z,13.73
2018-12-13T19:20:07.327Z,14.17
2018-12-13T19:22:39.931Z,14.37
2018-12-13T19:25:12.483Z,16.80
2018-12-13T19:27:45.020Z,14.07
2018-12-13T19:30:17.689Z,16.03
2018-12-13T19:32:50.255Z,13.93
2018-12-13T19:35:22.829Z,14.33
2018-12-13T19:37:55.372Z,13.40
2018-12-13T19:40:28.028Z,16.13
2018-12-13T19:43:00.548Z,14.90
2018-12-13T19:45:33.532Z,14.17
2018-12-13T19:48:06.283Z,14.87
2018-12-13T19:50:39.302Z,15.00
2018-12-13T19:53:12.166Z,13.73
2018-12-13T19:55:44.735Z,14.37
2018-12-13T19:58:17.332Z,14.00
2018-12-13T20:00:49.895Z,14.13
2018-12-13T20:03:22.427Z,13.23
2018-12-13T20:05:55.084Z,12.27
2018-12-13T20:08:27.618Z,12.83
2018-12-13T20:11:00.202Z,14.27
2018-12-13T20:13:32.748Z,13.57
2018-12-13T20:16:05.557Z,12.53
2018-12-13T20:18:38.136Z,13.27
2018-12-13T20:21:10.737Z,13.90
2018-12-13T20:23:43.273Z,13.87
2018-12-13T20:26:15.854Z,13.00
2018-12-13T20:28:48.396Z,12.37
2018-12-13T20:31:20.977Z,14.67
2018-12-13T20:33:53.568Z,13.67
2018-12-13T20:36:26.287Z,15.07
2018-12-13T20:38:58.922Z,13.37
2018-12-13T20:41:31.627Z,13.60
2018-12-13T20:44:04.294Z,14.50
2018-12-13T20:46:37.090Z,13.07
2018-12-13T20:49:09.642Z,15.10
2018-12-13T20:51:42.207Z,14.00
2018-12-13T20:54:14.813Z,14.03
2018-12-13T20:56:47.410Z,13.80
2018-12-13T20:59:20.019Z,14.80
2018-12-13T21:01:52.738Z,15.03
2018-12-13T21:04:25.266Z,14.37
2018-12-13T21:07:03.503Z,16.00
2018-12-13T21:09:36.092Z,14.60
2018-12-13T21:12:08.845Z,13.00
2018-12-13T21:14:41.526Z,14.37
2018-12-13T21:17:14.105Z,14.00
2018-12-13T21:19:46.642Z,15.00
2018-12-13T21:22:19.203Z,14.90
2018-12-13T21:24:51.756Z,14.53
2018-12-13T21:27:24.426Z,15.70
2018-12-13T21:29:56.954Z,13.90
2018-12-13T21:32:29.515Z,14.93
2018-12-13T21:35:02.217Z,14.43
2018-12-13T21:37:34.795Z,16.70
2018-12-13T21:40:09.619Z,14.10
2018-12-13T21:42:43.212Z,18.10
2018-12-13T21:45:15.754Z,15.20
2018-12-13T21:47:48.327Z,16.47
2018-12-13T21:50:20.876Z,15.53
2018-12-13T21:52:53.522Z,15.93
2018-12-13T21:55:26.059Z,15.37
2018-12-13T21:57:58.645Z,16.87
2018-12-13T22:00:31.186Z,17.37
2018-12-13T22:03:03.843Z,16.90
2018-12-13T22:05:36.380Z,15.87
2018-12-13T22:08:08.937Z,16.07
2018-12-13T22:10:41.507Z,15.37
2018-12-13T22:13:14.179Z,18.93
2018-12-13T22:15:46.714Z,16.43
2018-12-13T22:18:19.301Z,15.67
2018-12-13T22:20:51.844Z,15.80
2018-12-13T22:23:24.440Z,19.00
2018-12-13T22:25:57.138Z,15.73
2018-12-13T22:28:29.720Z,20.73
2018-12-13T22:31:02.256Z,16.73
2018-12-13T22:33:34.901Z,16.57
2018-12-13T22:36:07.448Z,17.13
2018-12-13T22:38:40.104Z,30.80
2018-12-13T22:41:12.705Z,31.30
2018-12-13T22:43:45.415Z,41.80
2018-12-13T22:46:17.969Z,57.40
2018-12-13T22:48:50.542Z,49.10
2018-12-13T22:51:23.092Z,36.43
2018-12-13T22:53:55.676Z,19.67
2018-12-13T22:56:28.227Z,19.03
2018-12-13T22:59:00.903Z,16.47
2018-12-13T23:01:33.477Z,16.27
2018-12-13T23:04:06.100Z,15.20
2018-12-13T23:06:38.630Z,15.63
2018-12-13T23:09:11.288Z,14.30
2018-12-13T23:11:43.834Z,14.30
2018-12-13T23:14:16.425Z,15.30
2018-12-13T23:16:49.011Z,15.13
2018-12-13T23:19:21.804Z,13.63
2018-12-13T23:21:54.370Z,13.67
2018-12-13T23:24:27.042Z,13.97
2018-12-13T23:27:00.468Z,12.70
2018-12-13T23:29:33.275Z,13.17
2018-12-13T23:32:05.812Z,12.43
2018-12-13T23:34:38.382Z,14.87
2018-12-13T23:37:11.310Z,11.70
2018-12-13T23:39:43.959Z,13.77
2018-12-13T23:42:16.722Z,11.43
2018-12-13T23:44:49.363Z,13.27
2018-12-13T23:47:21.923Z,12.10
2018-12-13T23:49:54.868Z,12.27
2018-12-13T23:52:27.450Z,12.50
2018-12-13T23:55:00.059Z,12.20
2018-12-13T23:57:32.794Z,11.60
